Flight Track Log - Related Links

Times and Time Zones

All times are in EDT time to prevent confusion due to time zone crossing. See the N200UW flight status page for this flight to view local times or setup timezone preferences in your user account.

Time Position Orientation Groundspeed Altitude Reporting Facility
EDT Latitude Longitude Course Direction KTS MPH feet Rate Location/Type
Mon 05:19:08 PM 42.8236 -106.5233 158° South 153 176 9,500  Level Denver Center
Mon 05:20:10 PM 42.7831 -106.5075 164° South 163 188 11,500 1,984 Climbing Denver Center
Mon 05:21:12 PM 42.7358 -106.4742 153° Southeast 169 194 13,600 1,839 Climbing Denver Center
Mon 05:22:14 PM 42.6942 -106.4428 151° Southeast 177 204 15,300 1,597 Climbing Denver Center
Mon 05:23:00 PM 42.5856 -106.3015 180° South  Level Estimated
Mon 05:23:16 PM 42.6475 -106.4181 159° South 186 214 16,900  Level Denver Center
Mon 05:24:00 PM 42.5319 -106.2745 158° South  Level Estimated
Mon 05:24:18 PM 42.5939 -106.3897 159° South 185 213 18,300  Level Denver Center
Mon 05:25:20 PM 42.5464 -106.3628 157° South 191 220 19,600 1,306 Climbing Denver Center
Mon 05:26:22 PM 42.4911 -106.3317 157° South 195 224 21,000 677 Climbing Denver Center
Mon 05:27:24 PM 42.4358 -106.3017 158° South 224 258 21,000  Level Denver Center
Mon 05:28:26 PM 42.3578 -106.2603 159° South 261 300 21,000  Level Denver Center
Mon 05:29:28 PM 42.2883 -106.2192 156° South 281 323 21,000  Level Denver Center
Mon 05:30:31 PM 42.2072 -106.1733 157° South 284 327 21,000  Level Denver Center
Mon 05:31:33 PM 42.1361 -106.1317 157° South 289 333 21,000  Level Denver Center
Mon 05:32:35 PM 42.0542 -106.0828 156° South 289 333 21,000  Level Denver Center
Mon 05:33:37 PM 41.9833 -106.0439 158° South 288 331 21,000 -581 Level Denver Center
Mon 05:34:39 PM 41.9003 -105.9983 158° South 288 331 19,800 -1,161 Descending Denver Center
Mon 05:35:41 PM 41.8325 -105.9608 158° South 282 325 18,600 -1,355 Descending Denver Center
Mon 05:36:43 PM 41.7561 -105.9175 157° South 274 315 17,000 -1,452 Descending Denver Center
Mon 05:37:45 PM 41.6906 -105.8853 160° South 270 311 15,600 -1,500 Descending Denver Center
Mon 05:38:47 PM 41.6178 -105.8439 157° South 262 302 13,900 -1,548 Descending Denver Center
Mon 05:39:49 PM 41.5578 -105.8089 156° South 255 293 12,400 -1,500 Descending Denver Center
Mon 05:40:51 PM 41.4928 -105.7742 158° South 243 280 10,800 -1,548 Descending Denver Center

Login

Don't have an account? Register now (free) for customized features, flight alerts, and more!